createdAt,value
2023-01-03T00:04:49.139Z,1.85
2023-01-03T00:09:51.807Z,2.01
2023-01-03T00:14:53.955Z,1.89
2023-01-03T00:19:56.340Z,1.87
2023-01-03T00:24:58.784Z,1.94
2023-01-03T00:30:01.450Z,1.69
2023-01-03T00:35:05.492Z,1.80
2023-01-03T00:40:08.411Z,1.56
2023-01-03T00:45:11.025Z,1.50
2023-01-03T00:50:13.408Z,1.67
2023-01-03T00:55:15.830Z,1.85
2023-01-03T01:00:18.313Z,1.61
2023-01-03T01:05:20.804Z,1.77
2023-01-03T01:10:24.358Z,1.73
2023-01-03T01:15:26.548Z,1.87
2023-01-03T01:20:28.741Z,1.70
2023-01-03T01:25:34.939Z,1.82
2023-01-03T01:30:40.297Z,1.67
2023-01-03T01:35:42.636Z,1.85
2023-01-03T01:40:45.518Z,1.59
2023-01-03T01:45:48.053Z,1.70
2023-01-03T01:50:54.517Z,1.45
2023-01-03T01:56:02.784Z,1.43
2023-01-03T02:01:08.449Z,1.53
2023-01-03T02:06:14.785Z,1.70
2023-01-03T02:11:25.496Z,1.67
2023-01-03T02:16:52.361Z,1.46
2023-01-03T02:22:18.753Z,1.53
2023-01-03T02:27:27.329Z,1.77
2023-01-03T02:32:51.318Z,1.81
2023-01-03T02:38:27.225Z,1.66
2023-01-03T02:43:41.557Z,1.67
2023-01-03T02:48:59.706Z,1.58
2023-01-03T02:54:05.537Z,1.56
2023-01-03T02:59:16.013Z,1.41
2023-01-03T03:04:20.570Z,1.34
2023-01-03T03:09:22.716Z,1.43
2023-01-03T03:14:35.277Z,1.44
2023-01-03T03:19:56.304Z,1.47
2023-01-03T03:25:02.452Z,1.47
2023-01-03T03:30:09.529Z,1.12
2023-01-03T03:35:15.108Z,1.22
2023-01-03T03:40:35.865Z,1.44
2023-01-03T03:46:07.873Z,1.57
2023-01-03T03:51:17.862Z,1.34
2023-01-03T03:56:25.156Z,1.61
2023-01-03T04:01:28.844Z,1.49
2023-01-03T04:06:52.737Z,1.54
2023-01-03T04:11:54.940Z,1.42
2023-01-03T04:16:57.381Z,1.40
2023-01-03T04:21:59.652Z,1.59
2023-01-03T04:27:01.925Z,1.42
2023-01-03T04:32:04.994Z,1.36
2023-01-03T04:37:07.442Z,1.23
2023-01-03T04:42:28.155Z,1.30
2023-01-03T04:47:30.336Z,1.27
2023-01-03T04:52:32.780Z,1.35
2023-01-03T04:57:36.567Z,1.34
2023-01-03T05:02:39.139Z,1.28
2023-01-03T05:07:41.340Z,1.30
2023-01-03T05:13:00.060Z,1.27
2023-01-03T05:18:02.627Z,1.24
2023-01-03T05:23:23.274Z,1.15
2023-01-03T05:28:25.796Z,1.14
2023-01-03T05:33:28.563Z,1.25
2023-01-03T05:38:31.008Z,1.25
2023-01-03T05:43:33.637Z,1.43
2023-01-03T05:48:36.417Z,1.40
2023-01-03T05:53:38.581Z,1.36
2023-01-03T05:58:43.430Z,1.18
2023-01-03T06:03:47.709Z,1.06
2023-01-03T06:08:50.272Z,1.38
2023-01-03T06:13:53.443Z,1.47
2023-01-03T06:18:55.739Z,1.37
2023-01-03T06:23:58.051Z,1.48
2023-01-03T06:29:01.377Z,1.73
2023-01-03T06:34:04.602Z,1.70
2023-01-03T06:39:09.192Z,1.59
2023-01-03T06:44:12.021Z,1.77
2023-01-03T06:49:36.011Z,1.82
2023-01-03T06:54:39.212Z,1.74
2023-01-03T06:59:41.688Z,1.61
2023-01-03T07:04:43.992Z,2.08
2023-01-03T07:09:46.511Z,2.41
2023-01-03T07:14:48.968Z,2.32
2023-01-03T07:19:51.113Z,2.65
2023-01-03T07:24:53.839Z,2.60
2023-01-03T07:29:56.461Z,3.01
2023-01-03T07:34:58.795Z,3.91
2023-01-03T07:40:01.490Z,9.89
2023-01-03T07:50:31.380Z,20.72
2023-01-03T07:55:35.885Z,22.50
2023-01-03T08:00:53.310Z,22.00
2023-01-03T08:05:55.520Z,20.33
2023-01-03T08:11:17.102Z,19.65
2023-01-03T08:16:19.893Z,19.89
2023-01-03T08:21:22.349Z,20.63
2023-01-03T08:26:24.495Z,20.00
2023-01-03T08:31:29.941Z,19.82
2023-01-03T08:36:41.390Z,20.07
2023-01-03T08:41:50.854Z,20.14
2023-01-03T08:46:56.001Z,20.55
2023-01-03T08:51:58.490Z,20.52
2023-01-03T08:57:01.017Z,20.58
2023-01-03T09:02:03.794Z,20.94
2023-01-03T09:07:06.266Z,21.27
2023-01-03T09:12:08.622Z,20.69
2023-01-03T09:17:10.863Z,21.06
2023-01-03T09:22:13.011Z,21.79
2023-01-03T09:27:15.283Z,22.30
2023-01-03T09:32:17.748Z,22.57
2023-01-03T09:37:20.182Z,22.98
2023-01-03T09:42:43.835Z,23.56
2023-01-03T09:47:46.679Z,23.13
2023-01-03T09:53:08.986Z,23.12
2023-01-03T09:58:33.783Z,23.61
2023-01-03T10:03:51.105Z,24.95
2023-01-03T10:09:08.904Z,25.97
2023-01-03T10:14:33.411Z,26.64
2023-01-03T10:19:54.541Z,27.01
2023-01-03T10:25:10.048Z,27.58
2023-01-03T10:30:19.666Z,27.13
2023-01-03T10:35:25.050Z,26.78
2023-01-03T10:40:44.747Z,27.05
2023-01-03T10:46:16.304Z,26.32
2023-01-03T10:51:42.984Z,26.05
2023-01-03T10:56:47.772Z,25.29
2023-01-03T11:02:16.871Z,23.86
2023-01-03T11:07:19.335Z,22.58
2023-01-03T11:12:39.371Z,22.15
2023-01-03T11:18:05.853Z,20.73
2023-01-03T11:23:55.526Z,20.67
2023-01-03T11:29:27.888Z,20.46
2023-01-03T11:35:20.807Z,20.05
2023-01-03T11:40:16.659Z,19.97
2023-01-03T11:45:46.504Z,19.62
2023-01-03T11:50:59.797Z,19.55
2023-01-03T11:56:10.458Z,19.25
2023-01-03T12:01:26.095Z,18.75
2023-01-03T12:07:08.448Z,18.92
2023-01-03T12:12:30.392Z,18.59
2023-01-03T12:17:49.692Z,18.45
2023-01-03T12:23:35.518Z,18.43
2023-01-03T12:28:48.433Z,18.08
2023-01-03T12:34:26.203Z,18.25
2023-01-03T12:39:55.597Z,18.19
2023-01-03T12:45:24.021Z,18.06
2023-01-03T12:50:48.494Z,17.93
2023-01-03T12:56:25.709Z,18.08
2023-01-03T13:01:38.234Z,17.66
2023-01-03T13:06:47.258Z,17.74
2023-01-03T13:11:55.520Z,17.76
2023-01-03T13:17:16.895Z,17.67
2023-01-03T13:22:33.084Z,17.70
2023-01-03T13:27:38.767Z,17.31
2023-01-03T13:32:50.755Z,17.60
2023-01-03T13:37:55.118Z,17.51
2023-01-03T13:43:06.552Z,17.58
2023-01-03T13:48:21.166Z,17.38
2023-01-03T13:53:23.774Z,17.22
2023-01-03T13:58:32.051Z,17.00
2023-01-03T14:04:33.983Z,16.60
2023-01-03T14:09:58.936Z,16.21
2023-01-03T14:15:24.866Z,16.13
2023-01-03T14:20:36.413Z,15.98
2023-01-03T14:25:41.939Z,15.47
2023-01-03T14:30:45.687Z,15.17
2023-01-03T14:35:48.520Z,15.00
2023-01-03T14:40:51.693Z,14.48
2023-01-03T14:45:57.619Z,14.19
2023-01-03T14:51:05.661Z,13.66
2023-01-03T14:56:11.033Z,13.45
2023-01-03T15:01:15.810Z,13.04
2023-01-03T15:06:27.500Z,12.72
2023-01-03T15:11:57.640Z,12.36
2023-01-03T15:17:13.887Z,11.91
2023-01-03T15:22:41.594Z,11.47
2023-01-03T15:27:47.472Z,11.02
2023-01-03T15:32:52.680Z,11.00
2023-01-03T15:37:56.455Z,10.67
2023-01-03T15:43:23.940Z,10.35
2023-01-03T15:48:27.238Z,10.14
2023-01-03T15:53:31.065Z,10.01
2023-01-03T15:58:35.709Z,9.54
2023-01-03T16:03:38.575Z,9.39
2023-01-03T16:08:42.907Z,9.06
2023-01-03T16:13:51.362Z,8.47
2023-01-03T16:18:55.144Z,8.25
2023-01-03T16:23:57.739Z,8.29
2023-01-03T16:29:00.085Z,7.96
2023-01-03T16:34:05.789Z,7.97
2023-01-03T16:39:20.167Z,7.65
2023-01-03T16:44:22.607Z,7.55
2023-01-03T16:49:25.327Z,7.41
2023-01-03T16:54:27.542Z,7.14
2023-01-03T16:59:32.046Z,6.89
2023-01-03T17:04:34.483Z,6.79
2023-01-03T17:09:36.638Z,6.79
2023-01-03T17:14:39.991Z,6.96
2023-01-03T17:20:03.217Z,6.77
2023-01-03T17:25:05.134Z,6.45
2023-01-03T17:30:08.669Z,6.49
2023-01-03T17:35:15.576Z,6.42
2023-01-03T17:40:27.683Z,6.46
2023-01-03T17:45:51.994Z,6.18
2023-01-03T17:50:58.689Z,6.01
2023-01-03T17:56:00.891Z,6.28
2023-01-03T18:01:04.217Z,6.56
2023-01-03T18:06:15.166Z,6.38
2023-01-03T18:11:20.591Z,5.90
2023-01-03T18:16:23.635Z,5.86
2023-01-03T18:21:30.368Z,5.45
2023-01-03T18:26:39.214Z,6.14
2023-01-03T18:31:42.630Z,6.66
2023-01-03T18:36:51.624Z,6.65
2023-01-03T18:42:16.320Z,5.87
2023-01-03T18:47:18.673Z,5.70
2023-01-03T18:52:26.893Z,5.76
2023-01-03T18:57:29.186Z,5.68
2023-01-03T19:02:31.954Z,5.49
2023-01-03T19:07:36.250Z,5.41
2023-01-03T19:12:40.276Z,5.12
2023-01-03T19:17:42.794Z,4.93
2023-01-03T19:22:47.545Z,5.04
2023-01-03T19:27:53.496Z,4.94
2023-01-03T19:32:57.279Z,4.94
2023-01-03T19:37:59.601Z,4.55
2023-01-03T19:43:02.873Z,4.38
2023-01-03T19:48:18.749Z,4.36
2023-01-03T19:53:21.088Z,4.27
2023-01-03T19:58:28.033Z,4.13
2023-01-03T20:03:34.139Z,3.70
2023-01-03T20:08:36.819Z,3.50
2023-01-03T20:13:39.213Z,3.72
2023-01-03T20:18:43.505Z,3.93
2023-01-03T20:23:55.572Z,3.88
2023-01-03T20:28:59.346Z,4.01
2023-01-03T20:34:04.858Z,3.71
2023-01-03T20:39:28.460Z,3.64
2023-01-03T20:44:30.863Z,3.63
2023-01-03T20:49:33.594Z,3.50
2023-01-03T20:54:35.786Z,3.62
2023-01-03T20:59:37.977Z,3.53
2023-01-03T21:04:41.136Z,3.37
2023-01-03T21:09:43.495Z,3.23
2023-01-03T21:14:45.842Z,3.24
2023-01-03T21:19:48.129Z,3.36
2023-01-03T21:24:55.694Z,3.28
2023-01-03T21:29:59.744Z,2.95
2023-01-03T21:35:02.107Z,2.99
2023-01-03T21:40:04.652Z,3.05
2023-01-03T21:45:12.222Z,2.94
2023-01-03T21:50:14.645Z,3.05
2023-01-03T21:55:18.053Z,3.11
2023-01-03T22:00:20.288Z,2.78
2023-01-03T22:05:22.550Z,2.72
2023-01-03T22:10:25.413Z,2.21
2023-01-03T22:15:28.008Z,2.47
2023-01-03T22:20:34.830Z,2.47
2023-01-03T22:25:40.633Z,2.30
2023-01-03T22:30:43.134Z,2.18
2023-01-03T22:35:45.356Z,1.97
2023-01-03T22:40:47.644Z,2.29
2023-01-03T22:45:49.968Z,2.30
2023-01-03T22:50:52.747Z,2.13
2023-01-03T22:55:54.972Z,2.03
2023-01-03T23:00:57.317Z,2.03
2023-01-03T23:06:06.660Z,1.65
2023-01-03T23:11:34.301Z,1.66
2023-01-03T23:16:37.417Z,1.44
2023-01-03T23:21:39.722Z,1.56
2023-01-03T23:26:42.268Z,1.52
2023-01-03T23:31:45.038Z,1.58
2023-01-03T23:36:47.461Z,1.90
2023-01-03T23:41:49.751Z,1.72
2023-01-03T23:46:51.953Z,1.88
2023-01-03T23:51:54.497Z,1.59
2023-01-03T23:56:56.837Z,1.83
